Time;durP1;ratioP1;P1;durP2;ratioP2;P2;SDS_P1;SDS_P2;PMS_P1;PMS_P2;Temp;Humidity;BMP_temperature;BMP_pressure;BME280_temperature;BME280_humidity;BME280_pressure;Samples;Min_cycle;Max_cycle;Signal;HPM_P1;HPM_P2
2022/06/15 00:01:04;;;;;;;8.80;4.10;;;14.30;99.90;;;;;;5022950;28;20221;-72
2022/06/15 00:03:34;;;;;;;5.40;3.55;;;14.20;99.90;;;;;;5027248;28;20610;-71
2022/06/15 00:06:07;;;;;;;6.85;3.22;;;14.20;99.90;;;;;;5017801;28;20213;-71
2022/06/15 00:08:34;;;;;;;6.70;3.90;;;14.20;99.90;;;;;;5017093;28;20581;-73
2022/06/15 00:11:11;;;;;;;10.10;4.88;;;14.20;99.90;;;;;;5019523;28;20566;-72
2022/06/15 00:13:38;;;;;;;8.15;4.22;;;14.20;99.90;;;;;;5023320;28;20602;-71
2022/06/15 00:16:08;;;;;;;14.70;9.27;;;14.20;99.90;;;;;;5004832;28;20211;-72
2022/06/15 00:18:36;;;;;;;9.27;5.55;;;14.10;99.90;;;;;;5010763;28;20220;-72
2022/06/15 00:21:03;;;;;;;7.85;4.38;;;14.20;99.90;;;;;;5014866;28;20309;-72
2022/06/15 00:23:33;;;;;;;7.10;3.90;;;14.20;99.90;;;;;;5024208;28;20202;-71
2022/06/15 00:26:01;;;;;;;5.63;3.97;;;14.10;99.90;;;;;;5017300;28;20224;-71
2022/06/15 00:28:28;;;;;;;7.22;3.83;;;14.20;99.90;;;;;;5013826;28;20295;-71
2022/06/15 00:30:55;;;;;;;9.77;4.25;;;14.10;99.90;;;;;;5020820;28;20242;-72
2022/06/15 00:33:24;;;;;;;8.50;4.75;;;14.10;99.90;;;;;;5024574;28;20230;-73
2022/06/15 00:35:58;;;;;;;6.75;4.40;;;14.10;99.90;;;;;;5019802;28;20213;-72
2022/06/15 00:38:26;;;;;;;10.10;5.40;;;14.00;99.90;;;;;;5022717;28;20593;-72
2022/06/15 00:40:54;;;;;;;7.05;4.75;;;14.00;99.90;;;;;;5026719;28;20319;-71
2022/06/15 00:43:35;;;;;;;5.38;4.07;;;14.00;99.90;;;;;;5014436;28;20283;-71
2022/06/15 00:46:18;;;;;;;7.30;3.90;;;13.90;99.90;;;;;;5008367;28;20642;-71
2022/06/15 00:48:48;;;;;;;8.65;4.68;;;13.90;99.90;;;;;;5016502;28;20687;-71
2022/06/15 00:51:16;;;;;;;6.65;4.40;;;13.90;99.90;;;;;;5020922;28;20671;-71
2022/06/15 00:53:43;;;;;;;6.00;3.83;;;13.90;99.90;;;;;;5024843;28;20251;-71
2022/06/15 00:56:12;;;;;;;9.13;4.45;;;13.90;99.90;;;;;;5024457;28;20201;-72
2022/06/15 00:58:41;;;;;;;9.68;4.47;;;13.90;99.90;;;;;;5015978;28;20197;-72
2022/06/15 01:01:08;;;;;;;6.47;4.38;;;13.80;99.90;;;;;;5017759;28;20237;-72
2022/06/15 01:03:37;;;;;;;7.80;5.25;;;13.80;99.90;;;;;;5020705;28;20199;-72
2022/06/15 01:06:11;;;;;;;4.85;3.63;;;13.80;99.90;;;;;;5017717;28;20204;-71
2022/06/15 01:08:45;;;;;;;5.53;4.85;;;13.70;99.90;;;;;;5028079;28;20206;-70
2022/06/15 01:11:25;;;;;;;5.53;4.30;;;13.90;99.90;;;;;;5011019;28;20627;-72
2022/06/15 01:14:28;;;;;;;6.45;4.13;;;13.80;99.90;;;;;;5028786;28;20230;-71
2022/06/15 01:17:04;;;;;;;6.97;4.18;;;13.80;99.90;;;;;;4996928;28;20234;-72
2022/06/15 01:20:10;;;;;;;10.32;5.07;;;13.70;99.90;;;;;;5024153;28;20697;-72
2022/06/15 01:23:11;;;;;;;5.53;4.40;;;13.70;99.90;;;;;;5009639;28;20215;-72
2022/06/15 01:25:42;;;;;;;6.78;4.35;;;13.70;99.90;;;;;;5013147;28;20254;-72
2022/06/15 01:28:33;;;;;;;6.32;5.20;;;13.60;99.90;;;;;;5023715;28;20211;-71
2022/06/15 01:31:09;;;;;;;10.38;5.05;;;13.60;99.90;;;;;;5020770;28;20316;-72
2022/06/15 01:33:43;;;;;;;7.28;4.22;;;13.60;99.90;;;;;;5021954;28;20238;-71
2022/06/15 01:36:19;;;;;;;7.85;4.93;;;13.60;99.90;;;;;;5022044;28;20573;-72
2022/06/15 01:38:57;;;;;;;11.98;5.55;;;13.50;99.90;;;;;;5022247;28;20649;-72
2022/06/15 01:41:32;;;;;;;5.38;4.22;;;13.50;99.90;;;;;;5020835;28;20206;-70
2022/06/15 01:44:05;;;;;;;7.63;5.00;;;13.50;99.90;;;;;;5019652;28;20223;-71
2022/06/15 01:46:36;;;;;;;8.20;4.30;;;13.50;99.90;;;;;;5013440;28;20710;-71
2022/06/15 01:49:04;;;;;;;6.78;4.22;;;13.50;99.90;;;;;;5011249;28;20307;-72
2022/06/15 01:51:35;;;;;;;7.40;4.82;;;13.40;99.90;;;;;;5025284;28;20257;-72
2022/06/15 01:54:06;;;;;;;5.78;4.70;;;13.40;99.90;;;;;;5006698;28;20306;-73
2022/06/15 01:56:37;;;;;;;7.22;4.80;;;13.50;99.90;;;;;;5025456;28;20197;-72
2022/06/15 01:59:10;;;;;;;9.70;5.35;;;13.40;99.90;;;;;;5012337;28;20312;-72
2022/06/15 02:01:46;;;;;;;4.15;3.75;;;13.40;99.90;;;;;;5015244;28;20201;-73
2022/06/15 02:04:24;;;;;;;8.32;4.80;;;13.50;99.90;;;;;;5008784;28;20284;-72
2022/06/15 02:07:04;;;;;;;7.07;4.35;;;13.40;99.90;;;;;;5025224;28;20207;-72
2022/06/15 02:09:38;;;;;;;6.45;4.80;;;13.40;99.90;;;;;;5015902;28;20823;-73
2022/06/15 02:12:08;;;;;;;6.95;6.22;;;13.40;99.90;;;;;;5022028;28;20535;-73
2022/06/15 02:14:40;;;;;;;11.73;5.65;;;13.40;99.90;;;;;;5014489;28;20227;-73
2022/06/15 02:17:17;;;;;;;5.85;4.95;;;13.30;99.90;;;;;;5012414;28;20203;-74
2022/06/15 02:19:47;;;;;;;7.25;4.90;;;13.30;99.90;;;;;;5019377;28;20234;-72
2022/06/15 02:22:25;;;;;;;8.23;4.28;;;13.20;99.90;;;;;;5009414;28;20201;-72
2022/06/15 02:24:55;;;;;;;5.75;5.18;;;13.20;99.90;;;;;;5023681;28;20251;-72
2022/06/15 02:27:26;;;;;;;6.05;5.18;;;13.20;99.90;;;;;;5018769;28;20206;-72
2022/06/15 02:29:56;;;;;;;11.18;4.93;;;13.20;99.90;;;;;;5027942;28;20267;-72
2022/06/15 02:32:25;;;;;;;7.68;5.20;;;13.10;99.90;;;;;;5021920;28;20297;-71
2022/06/15 02:34:52;;;;;;;6.88;5.05;;;13.20;99.90;;;;;;5014399;28;20219;-73
2022/06/15 02:37:19;;;;;;;9.15;6.20;;;13.10;99.90;;;;;;5014359;28;20239;-72
2022/06/15 02:39:46;;;;;;;7.53;5.60;;;13.10;99.90;;;;;;5031527;28;20222;-71
2022/06/15 02:42:26;;;;;;;12.75;7.57;;;13.10;99.90;;;;;;5028501;28;20266;-71
2022/06/15 02:44:55;;;;;;;7.80;5.25;;;13.10;99.90;;;;;;5022228;28;20291;-72
2022/06/15 02:47:27;;;;;;;8.50;6.10;;;13.10;99.90;;;;;;5007165;28;20221;-70
2022/06/15 02:49:54;;;;;;;6.70;6.00;;;13.10;99.90;;;;;;5014420;28;20254;-69
2022/06/15 02:52:27;;;;;;;6.57;5.22;;;13.10;99.90;;;;;;5020849;28;20242;-69
2022/06/15 02:54:56;;;;;;;7.28;5.50;;;13.10;99.90;;;;;;5014223;28;20215;-70
2022/06/15 02:57:24;;;;;;;14.77;5.55;;;13.00;99.90;;;;;;5013581;28;20658;-69
2022/06/15 02:59:52;;;;;;;6.10;5.50;;;13.00;99.90;;;;;;5013639;28;20274;-71
2022/06/15 03:02:20;;;;;;;10.13;6.15;;;13.00;99.90;;;;;;5016005;28;20229;-70
2022/06/15 03:04:49;;;;;;;5.53;4.60;;;13.00;99.90;;;;;;5027547;28;20230;-70
2022/06/15 03:07:17;;;;;;;7.97;5.68;;;13.00;99.90;;;;;;5021484;28;20294;-70
2022/06/15 03:09:44;;;;;;;9.07;5.60;;;13.00;99.90;;;;;;5028370;28;20263;-69
2022/06/15 03:12:11;;;;;;;8.13;5.80;;;13.00;99.90;;;;;;5015926;28;21231;-69
2022/06/15 03:14:38;;;;;;;9.95;6.60;;;13.00;99.90;;;;;;5012872;28;20207;-71
2022/06/15 03:17:06;;;;;;;7.90;5.93;;;13.00;99.90;;;;;;5013792;28;20235;-71
2022/06/15 03:19:33;;;;;;;7.50;6.18;;;13.00;99.90;;;;;;5009748;28;20227;-70
2022/06/15 03:22:01;;;;;;;9.02;6.70;;;13.00;99.90;;;;;;5017004;28;20206;-70
2022/06/15 03:24:28;;;;;;;7.18;6.35;;;13.00;99.90;;;;;;5014199;28;20205;-70
2022/06/15 03:26:55;;;;;;;9.85;6.63;;;13.00;99.90;;;;;;5010089;28;20605;-71
2022/06/15 03:29:23;;;;;;;9.93;6.75;;;13.10;99.90;;;;;;5011722;28;21030;-70
2022/06/15 03:31:50;;;;;;;5.90;5.07;;;13.10;99.90;;;;;;5011556;28;20665;-71
2022/06/15 03:34:17;;;;;;;7.32;5.80;;;13.10;99.90;;;;;;5023206;28;20667;-70
2022/06/15 03:36:44;;;;;;;7.60;6.80;;;13.10;99.90;;;;;;5019547;28;20293;-70
2022/06/15 03:39:12;;;;;;;9.73;5.80;;;13.20;99.90;;;;;;5014128;28;20223;-70
2022/06/15 03:41:39;;;;;;;8.27;6.15;;;13.10;99.90;;;;;;5024496;28;20208;-70
2022/06/15 03:44:06;;;;;;;12.30;6.57;;;13.10;99.90;;;;;;5015499;28;20199;-70
2022/06/15 03:46:33;;;;;;;7.47;6.45;;;13.20;99.90;;;;;;5007159;28;20286;-69
2022/06/15 03:49:00;;;;;;;9.27;7.13;;;13.20;99.90;;;;;;5010633;28;20299;-72
2022/06/15 03:51:27;;;;;;;10.35;6.80;;;13.20;99.90;;;;;;5016027;28;20301;-70
2022/06/15 03:53:54;;;;;;;7.97;5.93;;;13.30;99.90;;;;;;5017730;28;20230;-71
2022/06/15 03:56:22;;;;;;;9.05;5.45;;;13.30;99.90;;;;;;5020273;28;20670;-71
2022/06/15 03:58:50;;;;;;;9.13;5.30;;;13.40;99.90;;;;;;5019661;28;20246;-71
2022/06/15 04:01:17;;;;;;;5.85;5.32;;;13.50;99.90;;;;;;5011846;28;20590;-71
2022/06/15 04:03:44;;;;;;;10.60;6.90;;;13.50;99.90;;;;;;5020377;28;20620;-71
2022/06/15 04:06:12;;;;;;;6.95;6.13;;;13.50;99.90;;;;;;5008463;28;20197;-70
2022/06/15 04:08:38;;;;;;;11.52;5.30;;;13.60;99.90;;;;;;5019976;28;20624;-71
2022/06/15 04:11:07;;;;;;;11.13;4.93;;;13.60;99.90;;;;;;5010747;28;20562;-70
2022/06/15 04:13:36;;;;;;;8.05;5.32;;;13.80;99.90;;;;;;5020908;28;20224;-71
2022/06/15 04:16:05;;;;;;;7.28;5.00;;;14.10;99.90;;;;;;5011642;28;20260;-69
2022/06/15 04:18:32;;;;;;;6.35;5.75;;;14.80;99.90;;;;;;5008980;28;20280;-69
2022/06/15 04:20:59;;;;;;;8.68;4.82;;;15.30;99.90;;;;;;5012353;28;20235;-70
2022/06/15 04:23:26;;;;;;;6.43;5.30;;;15.40;99.90;;;;;;5019895;28;20829;-70
2022/06/15 04:25:57;;;;;;;6.60;5.57;;;15.40;99.90;;;;;;5017867;28;20197;-71
2022/06/15 04:28:27;;;;;;;5.10;3.95;;;15.30;99.90;;;;;;5008270;28;20201;-70
2022/06/15 04:30:55;;;;;;;6.10;5.22;;;15.30;99.90;;;;;;5012954;28;20307;-70
2022/06/15 04:33:24;;;;;;;8.95;5.30;;;15.30;99.90;;;;;;5014399;28;20204;-70
2022/06/15 04:35:51;;;;;;;7.10;5.63;;;15.40;99.90;;;;;;5019197;28;20221;-70
2022/06/15 04:38:19;;;;;;;5.20;4.55;;;15.50;99.90;;;;;;5020653;28;20212;-70
2022/06/15 04:40:45;;;;;;;11.75;7.65;;;15.60;99.90;;;;;;5018258;28;20221;-70
2022/06/15 04:43:13;;;;;;;6.82;5.10;;;15.90;99.90;;;;;;5015589;28;20551;-70
2022/06/15 04:45:40;;;;;;;6.88;4.32;;;16.60;99.90;;;;;;5009087;28;20235;-71
2022/06/15 04:48:09;;;;;;;4.90;4.32;;;17.10;99.90;;;;;;5010401;28;20211;-70
2022/06/15 04:50:37;;;;;;;5.70;4.40;;;17.30;99.90;;;;;;5008039;28;20288;-71
2022/06/15 04:53:05;;;;;;;4.30;3.90;;;17.70;99.90;;;;;;5018661;28;20451;-71
2022/06/15 04:55:33;;;;;;;8.23;4.30;;;17.80;99.90;;;;;;5015629;28;20486;-71
2022/06/15 04:58:01;;;;;;;9.00;5.10;;;17.70;99.90;;;;;;5003553;28;20251;-72
2022/06/15 05:00:32;;;;;;;4.20;3.80;;;17.60;99.90;;;;;;5007599;28;20281;-71
2022/06/15 05:02:58;;;;;;;5.17;3.87;;;17.60;99.90;;;;;;5008078;28;20465;-70
2022/06/15 05:05:27;;;;;;;3.93;3.63;;;17.60;99.90;;;;;;5009439;28;20474;-70
2022/06/15 05:07:54;;;;;;;6.67;3.80;;;17.80;99.90;;;;;;5012199;28;20471;-70
2022/06/15 05:10:24;;;;;;;6.63;4.33;;;17.80;99.90;;;;;;5008033;28;20497;-69
2022/06/15 05:12:51;;;;;;;3.63;3.03;;;17.90;99.90;;;;;;5015223;28;20482;-71
2022/06/15 05:15:18;;;;;;;6.70;3.73;;;18.00;99.90;;;;;;5023087;28;21136;-72
2022/06/15 05:17:47;;;;;;;7.00;4.37;;;18.00;99.90;;;;;;5025274;28;20450;-71
2022/06/15 05:20:16;;;;;;;4.20;3.80;;;17.90;99.90;;;;;;5018675;28;20514;-72
2022/06/15 05:22:50;;;;;;;5.33;3.70;;;17.90;99.90;;;;;;5024509;28;20446;-73
2022/06/15 05:25:18;;;;;;;3.53;3.23;;;18.00;99.90;;;;;;5019981;28;20447;-73
2022/06/15 05:27:45;;;;;;;7.97;3.80;;;18.00;99.90;;;;;;5008993;28;20451;-73
2022/06/15 05:30:14;;;;;;;4.53;4.03;;;18.10;99.90;;;;;;5013083;28;20475;-73
2022/06/15 05:32:40;;;;;;;4.47;3.60;;;18.10;99.90;;;;;;5007079;28;20444;-72
2022/06/15 05:35:10;;;;;;;4.47;2.90;;;18.10;99.90;;;;;;5021444;28;20948;-73
2022/06/15 05:37:37;;;;;;;5.57;3.70;;;18.20;99.90;;;;;;5017665;28;20654;-72
2022/06/15 05:40:07;;;;;;;7.10;2.90;;;18.30;99.90;;;;;;5008625;28;20519;-72
2022/06/15 05:42:35;;;;;;;4.17;2.63;;;18.40;99.90;;;;;;5016806;28;20443;-74
2022/06/15 05:45:03;;;;;;;6.60;2.90;;;18.60;99.90;;;;;;5021866;28;20492;-72
2022/06/15 05:47:30;;;;;;;5.90;3.40;;;18.90;99.90;;;;;;5027465;28;20451;-73
2022/06/15 05:50:00;;;;;;;4.47;2.87;;;19.50;99.90;;;;;;5016268;28;20526;-72
2022/06/15 05:52:27;;;;;;;3.27;2.90;;;19.80;99.90;;;;;;5007103;28;20876;-73
2022/06/15 05:54:54;;;;;;;6.30;2.70;;;20.00;99.90;;;;;;5014315;28;20575;-73
2022/06/15 05:57:24;;;;;;;5.70;3.10;;;20.10;99.90;;;;;;5013087;28;20459;-72
2022/06/15 05:59:52;;;;;;;3.53;2.43;;;20.20;99.90;;;;;;5011465;28;20489;-72
2022/06/15 06:02:21;;;;;;;5.43;2.57;;;20.50;99.90;;;;;;5020257;28;20487;-72
2022/06/15 06:04:49;;;;;;;4.57;2.67;;;20.70;99.10;;;;;;5023943;28;20516;-74
2022/06/15 06:07:17;;;;;;;3.17;2.30;;;20.80;98.90;;;;;;5027083;28;20451;-75
2022/06/15 06:09:44;;;;;;;4.07;2.57;;;21.20;98.00;;;;;;5012629;28;20506;-73
2022/06/15 06:12:11;;;;;;;2.60;2.13;;;21.20;97.50;;;;;;5013974;28;20529;-73
2022/06/15 06:14:40;;;;;;;2.90;2.50;;;21.40;96.90;;;;;;5023856;28;20563;-73
2022/06/15 06:17:08;;;;;;;3.53;1.40;;;22.20;96.20;;;;;;5010331;28;20460;-72
2022/06/15 06:19:35;;;;;;;3.03;1.77;;;23.70;93.30;;;;;;5005068;28;20558;-72
2022/06/15 06:22:02;;;;;;;6.20;2.30;;;25.40;90.10;;;;;;5016090;28;20516;-73
2022/06/15 06:24:29;;;;;;;3.30;1.50;;;26.20;85.00;;;;;;5015926;28;20474;-72
2022/06/15 06:27:00;;;;;;;6.10;2.63;;;27.50;79.40;;;;;;5007733;28;20532;-71
2022/06/15 06:29:29;;;;;;;3.10;2.20;;;28.00;75.90;;;;;;5012911;28;20515;-75
2022/06/15 06:31:59;;;;;;;9.83;2.40;;;28.40;75.50;;;;;;5005836;28;20800;-73
2022/06/15 06:34:26;;;;;;;5.33;3.10;;;29.00;72.80;;;;;;5016394;28;20546;-76
2022/06/15 06:36:53;;;;;;;2.50;2.20;;;29.30;71.80;;;;;;5007305;28;20586;-72
2022/06/15 06:39:25;;;;;;;2.90;1.80;;;29.40;71.20;;;;;;5014155;28;20495;-73
2022/06/15 06:41:52;;;;;;;4.43;2.33;;;29.70;69.60;;;;;;5005898;28;20775;-74
2022/06/15 06:44:19;;;;;;;6.47;2.77;;;29.90;69.10;;;;;;5014790;28;20539;-71
2022/06/15 06:46:48;;;;;;;3.07;2.00;;;30.20;69.20;;;;;;5002986;28;20974;-72
2022/06/15 06:49:17;;;;;;;4.20;2.50;;;30.20;67.10;;;;;;5016880;28;20496;-73
2022/06/15 06:51:45;;;;;;;5.57;2.60;;;30.60;67.10;;;;;;5012002;28;20539;-73
2022/06/15 06:54:14;;;;;;;5.27;2.43;;;31.20;65.90;;;;;;5011163;28;20498;-73
2022/06/15 06:56:41;;;;;;;2.83;2.07;;;31.30;65.30;;;;;;5013467;28;20570;-72
2022/06/15 06:59:11;;;;;;;5.30;2.83;;;31.60;64.10;;;;;;5004707;28;20503;-72
2022/06/15 07:01:41;;;;;;;8.27;2.57;;;31.70;64.20;;;;;;5007601;28;20527;-73
2022/06/15 07:04:09;;;;;;;3.40;2.63;;;31.90;63.40;;;;;;5012917;28;20448;-71
2022/06/15 07:06:37;;;;;;;3.37;2.40;;;32.20;61.30;;;;;;5010990;28;20532;-71
2022/06/15 07:09:05;;;;;;;3.90;2.23;;;32.40;60.90;;;;;;5015383;28;20468;-74
2022/06/15 07:11:33;;;;;;;5.13;2.53;;;32.50;60.70;;;;;;5012501;28;21018;-73
2022/06/15 07:14:00;;;;;;;4.83;3.00;;;32.30;60.20;;;;;;5022140;28;20547;-73
2022/06/15 07:16:27;;;;;;;4.57;2.33;;;32.60;59.70;;;;;;5014690;28;20565;-73
2022/06/15 07:18:54;;;;;;;3.10;2.80;;;32.50;58.30;;;;;;5012255;28;20452;-73
2022/06/15 07:21:25;;;;;;;7.03;2.90;;;32.90;59.50;;;;;;5007453;28;20450;-73
2022/06/15 07:23:56;;;;;;;4.90;2.77;;;32.40;59.80;;;;;;5019213;28;20527;-73
2022/06/15 07:26:26;;;;;;;3.13;2.20;;;32.30;59.60;;;;;;5027452;28;20439;-73
2022/06/15 07:28:54;;;;;;;4.33;2.20;;;32.90;58.20;;;;;;5023858;28;20513;-73
2022/06/15 07:31:22;;;;;;;5.13;2.37;;;33.30;56.40;;;;;;5014071;28;20547;-72
2022/06/15 07:33:50;;;;;;;3.20;2.13;;;33.10;57.40;;;;;;5020740;28;20586;-73
2022/06/15 07:36:17;;;;;;;4.27;2.00;;;32.40;55.90;;;;;;5004737;28;20487;-73
2022/06/15 07:38:44;;;;;;;5.03;2.17;;;32.80;54.30;;;;;;5006957;28;20480;-72
2022/06/15 07:41:13;;;;;;;3.80;1.50;;;33.00;56.20;;;;;;5013992;28;21892;-72
2022/06/15 07:43:40;;;;;;;3.73;1.83;;;33.10;55.20;;;;;;5023820;28;20458;-73
2022/06/15 07:46:08;;;;;;;4.43;1.70;;;32.90;54.30;;;;;;5018580;28;20440;-73
2022/06/15 07:51:29;;;;;;;6.87;2.10;;;33.00;53.00;;;;;;5021719;28;20464;-74
2022/06/15 07:53:57;;;;;;;3.70;1.27;;;33.60;51.80;;;;;;5012013;28;20525;-74
2022/06/15 07:56:26;;;;;;;2.70;1.67;;;34.30;49.60;;;;;;5020034;28;20535;-74
2022/06/15 07:58:53;;;;;;;8.63;3.07;;;34.80;48.90;;;;;;5020513;28;20929;-73
2022/06/15 08:01:20;;;;;;;4.50;2.23;;;34.50;49.70;;;;;;5015706;28;20532;-73
2022/06/15 08:03:47;;;;;;;7.90;3.30;;;34.50;49.60;;;;;;5017914;28;20448;-73
2022/06/15 08:06:14;;;;;;;6.10;2.20;;;34.50;50.70;;;;;;5009506;28;20446;-73
2022/06/15 08:08:42;;;;;;;12.47;2.40;;;34.80;49.00;;;;;;5015320;28;20587;-73
2022/06/15 08:11:09;;;;;;;5.33;1.77;;;34.60;49.50;;;;;;5011404;28;20531;-74
2022/06/15 08:13:38;;;;;;;3.87;1.43;;;34.70;49.30;;;;;;5011583;28;20946;-72
2022/06/15 08:16:06;;;;;;;3.43;2.57;;;34.00;49.40;;;;;;5021507;28;20490;-72
2022/06/15 08:18:39;;;;;;;5.13;2.20;;;34.00;50.10;;;;;;5011799;28;20449;-73
2022/06/15 08:21:10;;;;;;;4.93;2.30;;;34.20;50.20;;;;;;5016765;28;20444;-73
2022/06/15 08:23:41;;;;;;;3.10;2.00;;;34.40;49.30;;;;;;5010031;28;20849;-73
2022/06/15 08:26:13;;;;;;;8.53;2.30;;;34.10;47.60;;;;;;5013657;28;20431;-73
2022/06/15 08:28:44;;;;;;;4.03;2.00;;;34.70;47.90;;;;;;5005749;28;20438;-74
2022/06/15 08:31:12;;;;;;;6.40;2.80;;;33.60;48.30;;;;;;5013639;28;20498;-74
2022/06/15 08:33:40;;;;;;;5.83;2.70;;;33.80;49.00;;;;;;5012590;28;20451;-74
2022/06/15 08:36:10;;;;;;;7.27;2.53;;;33.40;48.50;;;;;;5015462;28;20484;-73
2022/06/15 08:38:38;;;;;;;7.70;2.77;;;33.80;48.90;;;;;;5018722;28;20451;-73
2022/06/15 08:41:07;;;;;;;4.70;1.73;;;33.90;48.00;;;;;;5012765;28;20856;-74
2022/06/15 08:43:55;;;;;;;6.37;2.13;;;34.60;47.90;;;;;;5017561;28;20447;-73
2022/06/15 08:46:33;;;;;;;3.73;2.30;;;34.60;47.10;;;;;;5018893;28;20443;-72
2022/06/15 08:49:20;;;;;;;3.27;1.40;;;34.10;47.50;;;;;;5005693;28;20567;-73
2022/06/15 08:51:51;;;;;;;4.53;2.20;;;35.00;47.00;;;;;;5019789;28;20451;-73
2022/06/15 08:54:27;;;;;;;10.23;2.47;;;35.00;46.50;;;;;;5016117;28;20543;-73
2022/06/15 08:56:59;;;;;;;9.63;2.27;;;34.90;46.80;;;;;;5017006;28;20565;-71
2022/06/15 08:59:33;;;;;;;11.47;2.20;;;34.90;46.40;;;;;;5017662;28;20831;-72
2022/06/15 09:02:07;;;;;;;8.20;2.50;;;34.70;46.00;;;;;;5021262;28;20528;-72
2022/06/15 09:04:42;;;;;;;4.40;2.10;;;35.20;45.10;;;;;;5020436;28;20469;-73
2022/06/15 09:07:30;;;;;;;6.67;2.03;;;35.20;45.70;;;;;;5023311;28;20431;-73
2022/06/15 09:10:23;;;;;;;5.40;2.53;;;35.20;44.40;;;;;;5013458;28;20467;-74
2022/06/15 09:13:04;;;;;;;5.43;2.70;;;35.20;45.20;;;;;;5015772;28;20525;-73
2022/06/15 09:15:43;;;;;;;5.10;2.27;;;34.90;44.80;;;;;;5019155;28;20802;-72
2022/06/15 09:18:17;;;;;;;12.50;2.43;;;34.40;45.10;;;;;;5023991;28;20626;-73
2022/06/15 09:20:48;;;;;;;7.47;3.40;;;34.90;45.90;;;;;;5021347;28;20510;-73
2022/06/15 09:23:22;;;;;;;6.73;3.13;;;34.70;45.60;;;;;;5013273;28;20436;-72
2022/06/15 09:25:53;;;;;;;5.53;2.73;;;34.70;45.90;;;;;;5021418;28;20836;-73
2022/06/15 09:28:26;;;;;;;5.57;2.23;;;34.20;46.30;;;;;;5011654;28;20685;-75
2022/06/15 09:30:59;;;;;;;3.63;2.10;;;34.40;46.10;;;;;;5021375;28;20840;-72
2022/06/15 09:33:32;;;;;;;4.07;2.10;;;34.20;46.50;;;;;;5019292;28;20447;-73
2022/06/15 09:36:07;;;;;;;3.40;2.23;;;34.60;46.10;;;;;;5019791;28;20900;-73
2022/06/15 09:38:36;;;;;;;3.30;2.00;;;34.20;45.50;;;;;;5006577;28;20444;-73
2022/06/15 09:41:10;;;;;;;7.93;2.53;;;33.90;46.00;;;;;;5010820;28;20546;-73
2022/06/15 09:43:49;;;;;;;3.20;1.97;;;33.90;46.10;;;;;;5023900;28;20475;-71
2022/06/15 09:46:29;;;;;;;4.83;2.20;;;33.20;46.20;;;;;;5029014;28;20447;-75
2022/06/15 09:49:05;;;;;;;6.90;2.37;;;31.70;47.90;;;;;;5016310;28;20487;-74
2022/06/15 09:51:44;;;;;;;4.90;2.43;;;30.30;49.40;;;;;;5003710;28;20444;-75
2022/06/15 09:54:20;;;;;;;4.13;2.33;;;29.00;51.90;;;;;;5012963;28;20446;-74
2022/06/15 09:56:49;;;;;;;3.90;2.30;;;28.80;53.60;;;;;;5014438;28;20570;-73
2022/06/15 09:59:19;;;;;;;9.57;2.77;;;29.50;53.00;;;;;;5011806;28;21039;-75
2022/06/15 10:01:48;;;;;;;4.90;2.83;;;30.30;52.50;;;;;;5008233;28;20487;-74
2022/06/15 10:04:18;;;;;;;4.73;2.43;;;30.90;50.70;;;;;;5007531;28;20460;-74
2022/06/15 10:06:49;;;;;;;5.80;2.00;;;30.90;50.90;;;;;;5012880;28;20931;-74
2022/06/15 10:09:20;;;;;;;3.57;2.10;;;31.10;50.70;;;;;;5009207;28;20491;-73
2022/06/15 10:11:52;;;;;;;5.70;2.50;;;31.60;49.70;;;;;;5018120;28;20542;-75
2022/06/15 10:14:24;;;;;;;3.10;1.90;;;31.80;48.80;;;;;;5021072;28;20458;-73
2022/06/15 10:16:57;;;;;;;2.90;2.33;;;32.10;49.00;;;;;;5009758;28;21021;-77
2022/06/15 10:19:26;;;;;;;3.80;2.50;;;32.00;48.50;;;;;;5013658;28;20462;-75
2022/06/15 10:21:56;;;;;;;4.37;2.43;;;32.60;48.00;;;;;;5022462;28;20486;-76
2022/06/15 10:24:27;;;;;;;3.07;2.30;;;32.40;48.10;;;;;;5016835;28;20527;-73
2022/06/15 10:27:36;;;;;;;6.63;2.57;;;32.00;47.50;;;;;;5025609;28;20485;-73
2022/06/15 10:30:17;;;;;;;5.07;2.07;;;31.60;48.10;;;;;;5017462;28;20560;-73
2022/06/15 10:33:00;;;;;;;5.83;2.90;;;31.10;49.40;;;;;;5008874;28;20530;-75
2022/06/15 10:35:29;;;;;;;2.37;1.67;;;31.00;48.90;;;;;;5007034;28;20449;-75
2022/06/15 10:37:58;;;;;;;4.17;2.40;;;30.80;50.00;;;;;;5016971;28;20487;-73
2022/06/15 10:40:29;;;;;;;2.60;2.27;;;30.40;49.60;;;;;;5009536;28;20663;-73
2022/06/15 10:43:01;;;;;;;4.03;2.20;;;29.90;51.50;;;;;;5024430;28;20455;-73
2022/06/15 10:45:33;;;;;;;5.27;2.50;;;29.50;52.50;;;;;;5020324;28;20924;-73
2022/06/15 10:48:07;;;;;;;3.97;2.07;;;28.80;52.00;;;;;;5020757;28;20522;-75
2022/06/15 10:50:42;;;;;;;3.77;2.57;;;28.30;53.00;;;;;;5015054;28;20479;-73
2022/06/15 10:53:31;;;;;;;4.70;2.43;;;28.20;53.20;;;;;;5022616;28;20447;-74
2022/06/15 11:04:28;;;;;;;3.20;2.33;;;27.80;55.80;;;;;;5025698;28;20426;-74
2022/06/15 11:07:05;;;;;;;2.97;2.00;;;27.90;55.30;;;;;;5022846;28;20528;-74
2022/06/15 11:09:35;;;;;;;4.97;2.60;;;27.70;56.20;;;;;;5009944;28;20503;-74
2022/06/15 11:12:08;;;;;;;3.27;2.20;;;27.60;55.60;;;;;;5019248;28;20448;-74
2022/06/15 11:14:47;;;;;;;4.93;2.40;;;27.50;56.00;;;;;;5022984;28;21005;-74
2022/06/15 11:20:30;;;;;;;4.53;2.10;;;27.40;56.40;;;;;;5012055;28;20495;-75
2022/06/15 11:23:03;;;;;;;3.60;2.07;;;27.30;56.80;;;;;;5020488;28;20451;-74
2022/06/15 11:25:43;;;;;;;3.00;2.27;;;27.00;56.70;;;;;;5015571;28;20446;-73
2022/06/15 11:28:17;;;;;;;5.70;2.60;;;27.00;58.00;;;;;;5008693;28;20436;-75
2022/06/15 11:30:53;;;;;;;5.30;2.17;;;27.00;57.60;;;;;;5019745;28;20498;-74
2022/06/15 11:33:25;;;;;;;3.77;2.17;;;26.90;57.60;;;;;;5022934;28;20489;-75
2022/06/15 11:36:01;;;;;;;2.60;1.80;;;26.60;57.40;;;;;;5023785;28;20483;-75
2022/06/15 11:38:41;;;;;;;4.30;2.30;;;26.30;58.90;;;;;;5010924;28;20471;-74
2022/06/15 11:41:17;;;;;;;4.57;2.10;;;26.20;57.60;;;;;;5007135;28;20536;-73
2022/06/15 11:43:47;;;;;;;2.13;1.87;;;26.00;57.80;;;;;;5018944;28;20451;-74
2022/06/15 11:46:27;;;;;;;3.10;2.23;;;25.90;58.20;;;;;;5015475;28;20463;-71
2022/06/15 11:49:05;;;;;;;4.07;2.20;;;25.90;59.40;;;;;;5014956;28;20472;-71
2022/06/15 11:51:52;;;;;;;6.40;2.30;;;25.60;58.40;;;;;;5016481;28;20501;-74
2022/06/15 11:54:40;;;;;;;5.83;1.93;;;25.60;59.40;;;;;;5005263;28;20957;-73
2022/06/15 11:57:15;;;;;;;4.00;1.80;;;25.40;59.30;;;;;;5006046;28;20475;-72
2022/06/15 11:59:53;;;;;;;3.60;2.20;;;25.40;60.30;;;;;;5014234;28;20550;-73
2022/06/15 12:02:32;;;;;;;5.53;2.43;;;25.70;60.00;;;;;;5012358;28;20451;-72
2022/06/15 12:05:16;;;;;;;6.83;2.00;;;25.80;60.00;;;;;;5009623;28;20486;-73
2022/06/15 12:07:56;;;;;;;3.90;2.40;;;25.90;59.80;;;;;;5013109;28;20466;-72
2022/06/15 12:10:40;;;;;;;3.73;2.30;;;26.00;59.00;;;;;;5008204;28;20464;-73
2022/06/15 12:13:14;;;;;;;3.77;2.70;;;25.90;59.40;;;;;;5019935;28;20454;-73
2022/06/15 12:15:46;;;;;;;2.20;1.93;;;25.90;59.60;;;;;;5012080;28;20471;-72
2022/06/15 12:18:31;;;;;;;4.43;2.33;;;25.70;60.50;;;;;;5022038;28;20497;-73
2022/06/15 12:21:04;;;;;;;3.57;2.30;;;25.70;60.20;;;;;;5013134;28;20455;-73
2022/06/15 12:23:44;;;;;;;2.77;2.20;;;25.80;60.40;;;;;;5006353;28;20518;-74
2022/06/15 12:26:25;;;;;;;7.47;2.43;;;26.00;59.80;;;;;;5022282;28;20501;-72
2022/06/15 12:29:01;;;;;;;4.57;2.13;;;26.10;60.30;;;;;;5022547;28;20572;-73
2022/06/15 12:31:43;;;;;;;7.07;2.30;;;26.30;60.00;;;;;;5017224;28;20450;-72
2022/06/15 12:34:18;;;;;;;4.20;2.00;;;26.40;60.40;;;;;;5022152;28;20438;-74
2022/06/15 12:36:50;;;;;;;6.00;2.40;;;26.40;59.70;;;;;;5008928;28;20470;-74
2022/06/15 12:39:25;;;;;;;5.43;2.90;;;26.40;59.10;;;;;;5022576;28;20517;-73
2022/06/15 12:42:13;;;;;;;4.10;1.97;;;26.50;58.80;;;;;;5010129;28;20472;-73
2022/06/15 12:44:48;;;;;;;2.40;1.70;;;26.20;59.00;;;;;;5008269;28;20502;-74
2022/06/15 12:47:17;;;;;;;2.93;2.20;;;26.20;59.70;;;;;;5022392;28;20446;-72
2022/06/15 12:49:52;;;;;;;3.70;2.40;;;26.20;59.80;;;;;;5006383;28;20475;-74
2022/06/15 12:52:22;;;;;;;3.20;1.97;;;26.20;59.40;;;;;;5020918;28;20538;-74
2022/06/15 12:55:03;;;;;;;5.70;2.30;;;26.20;59.70;;;;;;5017051;28;20470;-72
2022/06/15 12:57:39;;;;;;;4.50;2.20;;;26.20;59.60;;;;;;5006646;28;20911;-73
2022/06/15 13:00:16;;;;;;;3.67;2.40;;;26.30;59.70;;;;;;5001701;28;20480;-73
2022/06/15 13:02:48;;;;;;;3.40;2.07;;;26.20;58.90;;;;;;5003799;28;20448;-72
2022/06/15 13:05:25;;;;;;;4.63;2.40;;;26.20;59.70;;;;;;5011731;28;20454;-72
2022/06/15 13:08:21;;;;;;;5.40;2.70;;;26.20;59.30;;;;;;5012901;28;20790;-72
2022/06/15 13:11:14;;;;;;;4.77;3.20;;;26.20;59.30;;;;;;4983966;28;20467;-72
2022/06/15 13:13:44;;;;;;;4.53;2.73;;;26.00;60.10;;;;;;5010913;28;20451;-72
2022/06/15 13:16:14;;;;;;;5.70;2.20;;;25.80;60.20;;;;;;5006009;28;20444;-72
2022/06/15 13:18:48;;;;;;;2.93;2.00;;;25.80;60.30;;;;;;5004240;28;20566;-72
2022/06/15 13:21:16;;;;;;;3.30;2.10;;;25.80;60.50;;;;;;5017534;28;20791;-73
2022/06/15 13:23:46;;;;;;;2.10;1.40;;;25.80;60.60;;;;;;5029415;28;20533;-74